PWSweather.com
Personal Weather Stations
Station Observations
KMNGREYC2
Grey Cloud Island, Grey Cloud Island, MN 55071

Grey Cloud IslandGrey Cloud Island, MN 55071

Lat: 44.799333, Lon: -92.987851

Elevation: 700

Station Type: Davis VP2

www.jagielski.com/weather/conditions.htm

High Low Average
Temperature 80.3°F26.8°C 63.9°F17.7°C 72.0°F22.2°C
Dew Point 74.0°F23.3°C 62.5°F16.9°C 68.6°F20.3°C
Winds 4.0 mph 6.4 kmh Calm Calm Calm WSWCalm WSW
Wind Gusts 8.0 mph12.9 kmh -- 2.0 mph3.2 kmh
Humidity 98% 72% 89%
Pressure 29.97 in1014.9 mb 29.86 in1011.2 mb -
Precipitation 0.00 in0.0 mm - -
Hour Temp Dew Point Humidity Winds Wind Gusts Pressure Precip Precip Rate Daily Precip Total
12:00 AM 69.4°F20.8°C 66.7°F19.3°C 91% Calm Calm -- 29.86 in1011.2 mb 0.00 in0.0 mm 0.00 in0.0 mm 0.00 in0.0 mm
12:15 AM 69.2°F20.7°C 66.8°F19.3°C 92% Calm Calm -- 29.87 in1011.5 mb 0.00 in0.0 mm 0.00 in0.0 mm 0.00 in0.0 mm
12:30 AM 68.9°F20.5°C 66.5°F19.2°C 92% Calm Calm -- 29.86 in1011.2 mb 0.00 in0.0 mm 0.00 in0.0 mm 0.00 in0.0 mm
12:45 AM 68.6°F20.3°C 66.2°F19.0°C 92% Calm Calm -- 29.87 in1011.5 mb 0.00 in0.0 mm 0.00 in0.0 mm 0.00 in0.0 mm
01:00 AM 68.2°F20.1°C 65.8°F18.8°C 92% Calm Calm -- 29.87 in1011.5 mb 0.00 in0.0 mm 0.00 in0.0 mm 0.00 in0.0 mm
01:15 AM 68.0°F20.0°C 65.9°F18.8°C 93% Calm Calm -- 29.87 in1011.5 mb 0.00 in0.0 mm 0.00 in0.0 mm 0.00 in0.0 mm
01:30 AM 67.7°F19.8°C 65.6°F18.7°C 93% Calm Calm -- 29.87 in1011.5 mb 0.00 in0.0 mm 0.00 in0.0 mm 0.00 in0.0 mm
01:45 AM 67.4°F19.7°C 65.3°F18.5°C 93% Calm Calm -- 29.87 in1011.5 mb 0.00 in0.0 mm 0.00 in0.0 mm 0.00 in0.0 mm
02:00 AM 67.1°F19.5°C 65.0°F18.3°C 93% Calm Calm -- 29.87 in1011.5 mb 0.00 in0.0 mm 0.00 in0.0 mm 0.00 in0.0 mm
02:15 AM 66.8°F19.3°C 64.7°F18.2°C 93% Calm Calm -- 29.87 in1011.5 mb 0.00 in0.0 mm 0.00 in0.0 mm 0.00 in0.0 mm
02:30 AM 66.7°F19.3°C 64.9°F18.3°C 94% Calm Calm -- 29.86 in1011.2 mb 0.00 in0.0 mm 0.00 in0.0 mm 0.00 in0.0 mm
02:45 AM 66.3°F19.1°C 64.5°F18.1°C 94% Calm Calm -- 29.87 in1011.5 mb 0.00 in0.0 mm 0.00 in0.0 mm 0.00 in0.0 mm
03:00 AM 66.0°F18.9°C 64.2°F17.9°C 94% Calm Calm -- 29.87 in1011.5 mb 0.00 in0.0 mm 0.00 in0.0 mm 0.00 in0.0 mm
03:15 AM 65.8°F18.8°C 64.0°F17.8°C 94% Calm Calm -- 29.88 in1011.9 mb 0.00 in0.0 mm 0.00 in0.0 mm 0.00 in0.0 mm
03:30 AM 65.7°F18.7°C 63.9°F17.7°C 94% Calm Calm -- 29.88 in1011.9 mb 0.00 in0.0 mm 0.00 in0.0 mm 0.00 in0.0 mm
03:45 AM 65.6°F18.7°C 64.1°F17.8°C 95% Calm Calm -- 29.87 in1011.5 mb 0.00 in0.0 mm 0.00 in0.0 mm 0.00 in0.0 mm
04:00 AM 65.5°F18.6°C 64.0°F17.8°C 95% Calm Calm -- 29.86 in1011.2 mb 0.00 in0.0 mm 0.00 in0.0 mm 0.00 in0.0 mm
04:15 AM 65.4°F18.6°C 63.9°F17.7°C 95% Calm Calm -- 29.86 in1011.2 mb 0.00 in0.0 mm 0.00 in0.0 mm 0.00 in0.0 mm
04:30 AM 65.2°F18.4°C 63.7°F17.6°C 95% Calm Calm -- 29.86 in1011.2 mb 0.00 in0.0 mm 0.00 in0.0 mm 0.00 in0.0 mm
04:45 AM 65.0°F18.3°C 63.5°F17.5°C 95% Calm Calm -- 29.86 in1011.2 mb 0.00 in0.0 mm 0.00 in0.0 mm 0.00 in0.0 mm
05:00 AM 64.9°F18.3°C 63.4°F17.4°C 95% Calm Calm -- 29.87 in1011.5 mb 0.00 in0.0 mm 0.00 in0.0 mm 0.00 in0.0 mm
05:15 AM 64.9°F18.3°C 63.4°F17.4°C 95% Calm Calm -- 29.87 in1011.5 mb 0.00 in0.0 mm 0.00 in0.0 mm 0.00 in0.0 mm
05:30 AM 64.6°F18.1°C 63.1°F17.3°C 95% Calm Calm -- 29.88 in1011.9 mb 0.01 in0.3 mm 0.04 in1.0 mm 0.01 in0.3 mm
05:45 AM 64.3°F17.9°C 62.8°F17.1°C 95% Calm Calm -- 29.88 in1011.9 mb 0.01 in0.3 mm 0.00 in0.0 mm 0.01 in0.3 mm
06:00 AM 64.1°F17.8°C 62.6°F17.0°C 95% Calm Calm -- 29.88 in1011.9 mb 0.02 in0.5 mm 0.01 in0.3 mm 0.02 in0.5 mm
06:15 AM 64.0°F17.8°C 62.5°F16.9°C 95% Calm Calm -- 29.88 in1011.9 mb 0.02 in0.5 mm 0.00 in0.0 mm 0.02 in0.5 mm
06:30 AM 63.9°F17.7°C 62.7°F17.1°C 96% Calm Calm -- 29.89 in1012.2 mb 0.02 in0.5 mm 0.00 in0.0 mm 0.02 in0.5 mm
06:45 AM 64.2°F17.9°C 63.0°F17.2°C 96% Calm Calm -- 29.89 in1012.2 mb 0.01 in0.3 mm 0.00 in0.0 mm 0.02 in0.5 mm
07:00 AM 64.6°F18.1°C 63.7°F17.6°C 97% Calm Calm -- 29.90 in1012.5 mb 0.01 in0.3 mm 0.00 in0.0 mm 0.02 in0.5 mm
07:15 AM 65.7°F18.7°C 64.8°F18.2°C 97% Calm Calm -- 29.93 in1013.5 mb 0.00 in0.0 mm 0.00 in0.0 mm 0.02 in0.5 mm
07:30 AM 66.3°F19.1°C 65.4°F18.6°C 97% Calm Calm -- 29.93 in1013.5 mb 0.00 in0.0 mm 0.00 in0.0 mm 0.02 in0.5 mm
07:45 AM 67.5°F19.7°C 66.9°F19.4°C 98% Calm Calm -- 29.94 in1013.9 mb 0.00 in0.0 mm 0.00 in0.0 mm 0.02 in0.5 mm
08:00 AM 68.6°F20.3°C 68.0°F20.0°C 98% Calm Calm 1.0 mph1.6 kmh 29.94 in1013.9 mb 0.00 in0.0 mm 0.00 in0.0 mm 0.02 in0.5 mm
08:15 AM 69.2°F20.7°C 68.6°F20.3°C 98% Calm Calm -- 29.94 in1013.9 mb 0.00 in0.0 mm 0.00 in0.0 mm 0.02 in0.5 mm
08:30 AM 69.7°F20.9°C 69.1°F20.6°C 98% Calm Calm -- 29.94 in1013.9 mb 0.00 in0.0 mm 0.00 in0.0 mm 0.02 in0.5 mm
08:45 AM 70.0°F21.1°C 69.4°F20.8°C 98% Calm Calm -- 29.94 in1013.9 mb 0.00 in0.0 mm 0.00 in0.0 mm 0.02 in0.5 mm
09:00 AM 70.2°F21.2°C 69.6°F20.9°C 98% Calm Calm -- 29.94 in1013.9 mb 0.00 in0.0 mm 0.00 in0.0 mm 0.02 in0.5 mm
09:15 AM 70.6°F21.4°C 70.0°F21.1°C 98% Calm Calm -- 29.95 in1014.2 mb 0.00 in0.0 mm 0.00 in0.0 mm 0.02 in0.5 mm
09:30 AM 71.1°F21.7°C 70.5°F21.4°C 98% Calm Calm -- 29.95 in1014.2 mb 0.00 in0.0 mm 0.00 in0.0 mm 0.02 in0.5 mm
09:45 AM 71.4°F21.9°C 70.8°F21.6°C 98% Calm Calm -- 29.95 in1014.2 mb 0.00 in0.0 mm 0.00 in0.0 mm 0.02 in0.5 mm
10:00 AM 71.9°F22.2°C 71.3°F21.8°C 98% Calm Calm -- 29.95 in1014.2 mb 0.00 in0.0 mm 0.00 in0.0 mm 0.02 in0.5 mm
10:15 AM 72.1°F22.3°C 71.5°F21.9°C 98% Calm Calm -- 29.95 in1014.2 mb 0.00 in0.0 mm 0.00 in0.0 mm 0.02 in0.5 mm
10:30 AM 72.5°F22.5°C 71.9°F22.2°C 98% Calm Calm -- 29.95 in1014.2 mb 0.00 in0.0 mm 0.00 in0.0 mm 0.02 in0.5 mm
10:45 AM 72.5°F22.5°C 71.6°F22.0°C 97% Calm Calm -- 29.95 in1014.2 mb 0.00 in0.0 mm 0.00 in0.0 mm 0.02 in0.5 mm
11:00 AM 73.3°F22.9°C 72.1°F22.3°C 96% Calm Calm -- 29.95 in1014.2 mb 0.00 in0.0 mm 0.00 in0.0 mm 0.02 in0.5 mm
11:15 AM 74.1°F23.4°C 72.3°F22.4°C 94% Calm Calm -- 29.95 in1014.2 mb 0.00 in0.0 mm 0.00 in0.0 mm 0.02 in0.5 mm
11:30 AM 75.2°F24.0°C 72.7°F22.6°C 92% Calm Calm 3.0 mph4.8 kmh 29.95 in1014.2 mb 0.00 in0.0 mm 0.00 in0.0 mm 0.02 in0.5 mm
11:45 AM 76.5°F24.7°C 73.4°F23.0°C 90% Calm Calm 2.0 mph3.2 kmh 29.95 in1014.2 mb 0.00 in0.0 mm 0.00 in0.0 mm 0.02 in0.5 mm
12:00 PM 77.5°F25.3°C 73.0°F22.8°C 86% Calm Calm 3.0 mph4.8 kmh 29.95 in1014.2 mb 0.00 in0.0 mm 0.00 in0.0 mm 0.02 in0.5 mm
12:15 PM 78.1°F25.6°C 72.5°F22.5°C 83% Calm Calm 1.0 mph1.6 kmh 29.94 in1013.9 mb 0.00 in0.0 mm 0.00 in0.0 mm 0.02 in0.5 mm
12:30 PM 78.6°F25.9°C 72.3°F22.4°C 81% Calm Calm 1.0 mph1.6 kmh 29.93 in1013.5 mb 0.00 in0.0 mm 0.00 in0.0 mm 0.02 in0.5 mm
12:45 PM 78.8°F26.0°C 72.8°F22.7°C 82% Calm Calm 1.0 mph1.6 kmh 29.93 in1013.5 mb 0.00 in0.0 mm 0.00 in0.0 mm 0.02 in0.5 mm
01:00 PM 79.0°F26.1°C 72.7°F22.6°C 81% 1.0 mph SW1.6 kmh SW 3.0 mph4.8 kmh 29.91 in1012.9 mb 0.00 in0.0 mm 0.00 in0.0 mm 0.02 in0.5 mm
01:15 PM 80.0°F26.7°C 74.0°F23.3°C 82% 2.0 mph N3.2 kmh N 6.0 mph9.7 kmh 29.91 in1012.9 mb 0.00 in0.0 mm 0.00 in0.0 mm 0.02 in0.5 mm
01:30 PM 80.3°F26.8°C 73.9°F23.3°C 81% Calm Calm 6.0 mph9.7 kmh 29.89 in1012.2 mb 0.00 in0.0 mm 0.00 in0.0 mm 0.02 in0.5 mm
01:45 PM 80.1°F26.7°C 73.0°F22.8°C 79% Calm Calm 6.0 mph9.7 kmh 29.89 in1012.2 mb 0.00 in0.0 mm 0.00 in0.0 mm 0.02 in0.5 mm
02:00 PM 80.0°F26.7°C 72.9°F22.7°C 79% 4.0 mph ESE6.4 kmh ESE 6.0 mph9.7 kmh 29.89 in1012.2 mb 0.00 in0.0 mm 0.00 in0.0 mm 0.02 in0.5 mm
02:15 PM 80.0°F26.7°C 72.5°F22.5°C 78% Calm Calm 5.0 mph8.0 kmh 29.90 in1012.5 mb 0.00 in0.0 mm 0.00 in0.0 mm 0.02 in0.5 mm
02:30 PM 79.7°F26.5°C 71.5°F21.9°C 76% 1.0 mph NE1.6 kmh NE 5.0 mph8.0 kmh 29.91 in1012.9 mb 0.00 in0.0 mm 0.00 in0.0 mm 0.02 in0.5 mm
02:45 PM 79.3°F26.3°C 72.2°F22.3°C 79% Calm Calm 3.0 mph4.8 kmh 29.91 in1012.9 mb 0.00 in0.0 mm 0.00 in0.0 mm 0.02 in0.5 mm
03:00 PM 78.7°F25.9°C 71.6°F22.0°C 79% Calm Calm 3.0 mph4.8 kmh 29.90 in1012.5 mb 0.00 in0.0 mm 0.00 in0.0 mm 0.02 in0.5 mm
03:15 PM 78.4°F25.8°C 71.4°F21.9°C 79% 1.0 mph NNW1.6 kmh NNW 5.0 mph8.0 kmh 29.91 in1012.9 mb 0.00 in0.0 mm 0.00 in0.0 mm 0.02 in0.5 mm
03:30 PM 78.5°F25.8°C 71.1°F21.7°C 78% Calm Calm 5.0 mph8.0 kmh 29.91 in1012.9 mb 0.00 in0.0 mm 0.00 in0.0 mm 0.02 in0.5 mm
03:45 PM 79.0°F26.1°C 71.2°F21.8°C 77% 2.0 mph ESE3.2 kmh ESE 8.0 mph12.9 kmh 29.91 in1012.9 mb 0.00 in0.0 mm 0.00 in0.0 mm 0.02 in0.5 mm
04:00 PM 79.6°F26.4°C 69.8°F21.0°C 72% Calm Calm 8.0 mph12.9 kmh 29.91 in1012.9 mb 0.00 in0.0 mm 0.00 in0.0 mm 0.02 in0.5 mm
04:15 PM 79.6°F26.4°C 70.2°F21.2°C 73% Calm Calm 3.0 mph4.8 kmh 29.91 in1012.9 mb 0.00 in0.0 mm 0.00 in0.0 mm 0.02 in0.5 mm
04:30 PM 79.2°F26.2°C 69.8°F21.0°C 73% Calm Calm 3.0 mph4.8 kmh 29.91 in1012.9 mb 0.00 in0.0 mm 0.00 in0.0 mm 0.02 in0.5 mm
04:45 PM 78.9°F26.1°C 70.3°F21.3°C 75% Calm Calm 4.0 mph6.4 kmh 29.90 in1012.5 mb 0.00 in0.0 mm 0.00 in0.0 mm 0.02 in0.5 mm
05:00 PM 78.5°F25.8°C 70.7°F21.5°C 77% Calm Calm 4.0 mph6.4 kmh 29.90 in1012.5 mb 0.00 in0.0 mm 0.00 in0.0 mm 0.02 in0.5 mm
05:15 PM 78.2°F25.7°C 70.4°F21.3°C 77% Calm Calm 5.0 mph8.0 kmh 29.89 in1012.2 mb 0.00 in0.0 mm 0.00 in0.0 mm 0.02 in0.5 mm
05:30 PM 78.0°F25.6°C 71.0°F21.7°C 79% Calm Calm 5.0 mph8.0 kmh 29.90 in1012.5 mb 0.00 in0.0 mm 0.00 in0.0 mm 0.02 in0.5 mm
05:45 PM 77.7°F25.4°C 70.7°F21.5°C 79% Calm Calm 3.0 mph4.8 kmh 29.90 in1012.5 mb 0.00 in0.0 mm 0.00 in0.0 mm 0.02 in0.5 mm
06:00 PM 77.4°F25.2°C 70.8°F21.6°C 80% 1.0 mph N1.6 kmh N 8.0 mph12.9 kmh 29.91 in1012.9 mb 0.00 in0.0 mm 0.00 in0.0 mm 0.02 in0.5 mm
06:15 PM 77.1°F25.1°C 70.1°F21.2°C 79% Calm Calm 5.0 mph8.0 kmh 29.90 in1012.5 mb 0.00 in0.0 mm 0.00 in0.0 mm 0.02 in0.5 mm
06:30 PM 76.9°F24.9°C 70.3°F21.3°C 80% Calm Calm 6.0 mph9.7 kmh 29.90 in1012.5 mb 0.00 in0.0 mm 0.00 in0.0 mm 0.02 in0.5 mm
06:45 PM 76.8°F24.9°C 70.5°F21.4°C 81% Calm Calm 4.0 mph6.4 kmh 29.91 in1012.9 mb 0.00 in0.0 mm 0.00 in0.0 mm 0.02 in0.5 mm
07:00 PM 76.6°F24.8°C 70.3°F21.3°C 81% Calm Calm 5.0 mph8.0 kmh 29.91 in1012.9 mb 0.00 in0.0 mm 0.00 in0.0 mm 0.02 in0.5 mm
07:15 PM 76.3°F24.6°C 70.4°F21.3°C 82% Calm Calm 3.0 mph4.8 kmh 29.92 in1013.2 mb 0.00 in0.0 mm 0.00 in0.0 mm 0.02 in0.5 mm
07:30 PM 76.0°F24.4°C 70.1°F21.2°C 82% Calm Calm 5.0 mph8.0 kmh 29.94 in1013.9 mb 0.00 in0.0 mm 0.00 in0.0 mm 0.02 in0.5 mm
07:45 PM 75.8°F24.3°C 70.6°F21.4°C 84% Calm Calm 2.0 mph3.2 kmh 29.93 in1013.5 mb 0.00 in0.0 mm 0.00 in0.0 mm 0.02 in0.5 mm
08:00 PM 75.2°F24.0°C 70.7°F21.5°C 86% Calm Calm 4.0 mph6.4 kmh 29.93 in1013.5 mb 0.01 in0.3 mm 0.01 in0.3 mm 0.03 in0.8 mm
08:15 PM 74.3°F23.5°C 70.2°F21.2°C 87% Calm Calm 4.0 mph6.4 kmh 29.93 in1013.5 mb 0.01 in0.3 mm 0.00 in0.0 mm 0.03 in0.8 mm
08:30 PM 73.3°F22.9°C 69.5°F20.8°C 88% 1.0 mph NNE1.6 kmh NNE 4.0 mph6.4 kmh 29.94 in1013.9 mb 0.01 in0.3 mm 0.00 in0.0 mm 0.03 in0.8 mm
08:45 PM 72.6°F22.6°C 69.2°F20.7°C 89% Calm Calm 1.0 mph1.6 kmh 29.94 in1013.9 mb 0.02 in0.5 mm 0.04 in1.0 mm 0.04 in1.0 mm
09:00 PM 72.1°F22.3°C 69.3°F20.7°C 91% 2.0 mph NE3.2 kmh NE 2.0 mph3.2 kmh 29.94 in1013.9 mb 0.02 in0.5 mm 0.00 in0.0 mm 0.04 in1.0 mm
09:15 PM 71.8°F22.1°C 69.4°F20.8°C 92% Calm Calm 4.0 mph6.4 kmh 29.94 in1013.9 mb 0.01 in0.3 mm 0.00 in0.0 mm 0.04 in1.0 mm
09:30 PM 71.6°F22.0°C 69.5°F20.8°C 93% Calm Calm 4.0 mph6.4 kmh 29.95 in1014.2 mb 0.01 in0.3 mm 0.00 in0.0 mm 0.04 in1.0 mm
09:45 PM 71.2°F21.8°C 69.1°F20.6°C 93% Calm Calm 1.0 mph1.6 kmh 29.95 in1014.2 mb 0.01 in0.3 mm 0.00 in0.0 mm 0.04 in1.0 mm
10:00 PM 70.9°F21.6°C 68.8°F20.4°C 93% Calm Calm 1.0 mph1.6 kmh 29.96 in1014.6 mb 0.02 in0.5 mm 0.01 in0.3 mm 0.05 in1.3 mm
10:15 PM 70.6°F21.4°C 68.5°F20.3°C 93% Calm Calm -- 29.97 in1014.9 mb 0.01 in0.3 mm 0.00 in0.0 mm 0.05 in1.3 mm
10:30 PM 70.3°F21.3°C 68.5°F20.3°C 94% Calm Calm 1.0 mph1.6 kmh 29.97 in1014.9 mb 0.01 in0.3 mm 0.00 in0.0 mm 0.05 in1.3 mm
10:45 PM 70.2°F21.2°C 68.4°F20.2°C 94% Calm Calm 1.0 mph1.6 kmh 29.97 in1014.9 mb 0.02 in0.5 mm 0.04 in1.0 mm 0.06 in1.5 mm
11:00 PM 70.0°F21.1°C 68.2°F20.1°C 94% Calm Calm 1.0 mph1.6 kmh 29.97 in1014.9 mb 0.02 in0.5 mm 0.00 in0.0 mm 0.06 in1.5 mm
11:15 PM 69.8°F21.0°C 68.3°F20.2°C 95% Calm Calm 1.0 mph1.6 kmh 29.97 in1014.9 mb 0.01 in0.3 mm 0.00 in0.0 mm 0.06 in1.5 mm
11:30 PM 69.5°F20.8°C 68.0°F20.0°C 95% Calm Calm 3.0 mph4.8 kmh 29.97 in1014.9 mb 0.01 in0.3 mm 0.00 in0.0 mm 0.06 in1.5 mm
11:45 PM 69.2°F20.7°C 67.7°F19.8°C 95% Calm Calm 2.0 mph3.2 kmh 29.97 in1014.9 mb 0.00 in0.0 mm 0.00 in0.0 mm 0.06 in1.5 mm